createdAt,value
2019-01-16T00:00:47.246Z,34.00
2019-01-16T00:03:34.314Z,32.97
2019-01-16T00:06:30.068Z,29.03
2019-01-16T00:09:15.641Z,28.60
2019-01-16T00:12:20.139Z,40.43
2019-01-16T00:15:07.467Z,35.10
2019-01-16T00:18:07.274Z,27.87
2019-01-16T00:20:49.481Z,19.83
2019-01-16T00:23:35.062Z,26.87
2019-01-16T00:26:21.009Z,31.83
2019-01-16T00:29:10.711Z,34.63
2019-01-16T00:32:00.497Z,28.03
2019-01-16T00:34:49.721Z,21.20
2019-01-16T00:37:36.394Z,19.90
2019-01-16T00:40:43.013Z,30.53
2019-01-16T00:43:21.124Z,21.77
2019-01-16T00:46:06.483Z,36.53
2019-01-16T00:48:53.192Z,35.13
2019-01-16T00:51:51.835Z,31.07
2019-01-16T00:54:42.148Z,32.73
2019-01-16T00:57:28.455Z,32.00
2019-01-16T01:00:14.333Z,21.00
2019-01-16T01:02:58.832Z,25.30
2019-01-16T01:05:51.417Z,35.23
2019-01-16T01:08:44.270Z,29.03
2019-01-16T01:11:29.679Z,24.30
2019-01-16T01:14:23.010Z,20.43
2019-01-16T01:17:24.938Z,20.27
2019-01-16T01:20:13.199Z,22.80
2019-01-16T01:23:05.800Z,33.47
2019-01-16T01:25:55.523Z,24.23
2019-01-16T01:28:41.439Z,20.87
2019-01-16T01:31:34.645Z,19.03
2019-01-16T01:34:18.922Z,23.80
2019-01-16T01:37:19.152Z,27.67
2019-01-16T01:40:03.709Z,23.10
2019-01-16T01:42:50.646Z,23.43
2019-01-16T01:45:40.121Z,24.47
2019-01-16T01:48:39.759Z,16.23
2019-01-16T01:51:13.596Z,41.23
2019-01-16T01:54:12.051Z,28.13
2019-01-16T01:56:51.768Z,23.20
2019-01-16T01:59:37.759Z,23.97
2019-01-16T02:02:14.223Z,27.43
2019-01-16T02:05:01.259Z,19.20
2019-01-16T02:07:48.763Z,32.03
2019-01-16T02:10:35.717Z,29.83
2019-01-16T02:13:16.346Z,20.73
2019-01-16T02:16:02.052Z,30.07
2019-01-16T02:19:09.201Z,25.53
2019-01-16T02:21:56.347Z,33.53
2019-01-16T02:24:41.286Z,34.43
2019-01-16T02:27:32.019Z,24.40
2019-01-16T02:30:10.191Z,32.63
2019-01-16T02:33:00.906Z,30.90
2019-01-16T02:35:54.567Z,17.70
2019-01-16T02:38:41.598Z,27.90
2019-01-16T02:41:44.794Z,22.43
2019-01-16T02:44:38.578Z,33.60
2019-01-16T02:47:37.350Z,19.67
2019-01-16T02:50:14.718Z,25.13
2019-01-16T02:53:20.705Z,30.47
2019-01-16T02:55:57.991Z,21.97
2019-01-16T02:58:45.619Z,26.77
2019-01-16T03:01:30.282Z,27.70
2019-01-16T03:04:15.882Z,20.97
2019-01-16T03:07:02.560Z,22.57
2019-01-16T03:09:36.589Z,25.03
2019-01-16T03:12:21.919Z,19.60
2019-01-16T03:15:07.266Z,21.83
2019-01-16T03:17:53.881Z,32.80
2019-01-16T03:20:33.789Z,26.37
2019-01-16T03:23:35.649Z,36.67
2019-01-16T03:26:35.550Z,19.83
2019-01-16T03:29:14.558Z,21.87
2019-01-16T03:32:13.566Z,22.00
2019-01-16T03:34:52.320Z,23.93
2019-01-16T03:37:30.929Z,23.90
2019-01-16T03:40:16.193Z,31.80
2019-01-16T03:42:57.380Z,22.37
2019-01-16T03:45:31.862Z,26.50
2019-01-16T03:48:19.322Z,22.93
2019-01-16T03:51:04.911Z,38.87
2019-01-16T03:53:53.203Z,22.13
2019-01-16T03:56:42.901Z,28.33
2019-01-16T03:59:27.985Z,34.03
2019-01-16T04:02:23.963Z,35.37
2019-01-16T04:05:16.811Z,24.30
2019-01-16T04:08:02.391Z,29.33
2019-01-16T04:10:58.156Z,26.83
2019-01-16T04:13:53.849Z,32.93
2019-01-16T04:16:34.372Z,33.43
2019-01-16T04:19:22.064Z,20.43
2019-01-16T04:22:03.443Z,26.93
2019-01-16T04:24:59.247Z,29.13
2019-01-16T04:27:45.922Z,28.20
2019-01-16T04:30:28.712Z,34.30
2019-01-16T04:33:13.953Z,29.50
2019-01-16T04:36:05.803Z,27.43
2019-01-16T04:38:52.496Z,31.17
2019-01-16T04:41:37.992Z,29.47
2019-01-16T04:44:14.890Z,27.00
2019-01-16T04:47:10.892Z,30.40
2019-01-16T04:50:12.673Z,41.40
2019-01-16T04:53:04.694Z,27.53
2019-01-16T04:56:06.710Z,35.83
2019-01-16T04:58:52.349Z,30.23
2019-01-16T05:01:44.968Z,25.67
2019-01-16T05:04:22.384Z,26.50
2019-01-16T05:06:58.731Z,36.57
2019-01-16T05:09:40.871Z,34.27
2019-01-16T05:12:31.570Z,31.70
2019-01-16T05:15:12.805Z,24.17
2019-01-16T05:17:50.203Z,28.07
2019-01-16T05:20:35.603Z,21.43
2019-01-16T05:23:27.198Z,31.13
2019-01-16T05:26:32.022Z,27.43
2019-01-16T05:29:17.887Z,27.70
2019-01-16T05:32:11.030Z,28.60
2019-01-16T05:35:07.669Z,29.73
2019-01-16T05:37:52.954Z,28.23
2019-01-16T05:40:40.159Z,25.03
2019-01-16T05:43:21.949Z,30.00
2019-01-16T05:46:19.468Z,30.10
2019-01-16T05:49:06.325Z,23.70
2019-01-16T05:51:53.347Z,30.30
2019-01-16T05:54:39.643Z,32.63
2019-01-16T05:57:28.043Z,26.17
2019-01-16T06:00:13.240Z,32.27
2019-01-16T06:02:57.997Z,30.93
2019-01-16T06:06:00.294Z,27.23
2019-01-16T06:08:46.984Z,23.50
2019-01-16T06:11:31.566Z,23.93
2019-01-16T06:14:10.031Z,25.00
2019-01-16T06:16:56.173Z,26.13
2019-01-16T06:19:37.915Z,32.87
2019-01-16T06:22:26.925Z,30.53
2019-01-16T06:25:13.076Z,23.10
2019-01-16T06:27:58.382Z,34.37
2019-01-16T06:30:54.620Z,32.03
2019-01-16T06:33:48.178Z,26.97
2019-01-16T06:36:34.847Z,27.90
2019-01-16T06:39:28.960Z,33.30
2019-01-16T06:42:18.216Z,22.10
2019-01-16T06:44:59.225Z,33.55
2019-01-16T06:47:50.022Z,26.00
2019-01-16T06:50:36.423Z,27.70
2019-01-16T06:53:21.959Z,31.13
2019-01-16T06:56:07.539Z,29.80
2019-01-16T06:58:52.459Z,31.67
2019-01-16T07:01:38.249Z,32.40
2019-01-16T07:04:34.418Z,41.73
2019-01-16T07:07:21.898Z,29.87
2019-01-16T07:10:02.183Z,21.00
2019-01-16T07:12:57.951Z,24.90
2019-01-16T07:15:51.340Z,27.10
2019-01-16T07:18:43.983Z,24.20
2019-01-16T07:21:33.565Z,28.60
2019-01-16T07:24:14.640Z,31.60
2019-01-16T07:27:02.469Z,26.13
2019-01-16T07:29:58.000Z,21.53
2019-01-16T07:32:54.159Z,29.17
2019-01-16T07:35:41.009Z,23.60
2019-01-16T07:38:44.413Z,25.97
2019-01-16T07:41:40.440Z,22.47
2019-01-16T07:44:26.650Z,23.87
2019-01-16T07:47:10.186Z,18.67
2019-01-16T07:50:17.181Z,17.17
2019-01-16T07:52:59.172Z,21.90
2019-01-16T07:55:45.055Z,41.67
2019-01-16T07:58:30.720Z,23.20
2019-01-16T08:01:16.501Z,23.90
2019-01-16T08:04:18.598Z,29.30
2019-01-16T08:07:02.640Z,19.90
2019-01-16T08:09:56.002Z,24.07
2019-01-16T08:12:41.912Z,20.27
2019-01-16T08:15:28.804Z,17.37
2019-01-16T08:18:19.718Z,20.23
2019-01-16T08:21:06.246Z,22.03
2019-01-16T08:24:02.414Z,19.30
2019-01-16T08:26:45.507Z,22.57
2019-01-16T08:29:37.602Z,24.15
2019-01-16T08:32:19.497Z,20.80
2019-01-16T08:34:58.627Z,17.33
2019-01-16T08:37:46.628Z,16.83
2019-01-16T08:40:32.729Z,30.57
2019-01-16T08:43:18.340Z,23.23
2019-01-16T08:46:05.547Z,20.80
2019-01-16T08:48:51.121Z,14.00
2019-01-16T08:51:30.061Z,16.80
2019-01-16T08:54:35.254Z,25.40
2019-01-16T08:57:20.802Z,20.03
2019-01-16T09:00:22.144Z,28.00
2019-01-16T09:03:00.143Z,31.70
2019-01-16T09:05:45.812Z,15.77
2019-01-16T09:08:35.762Z,15.30
2019-01-16T09:11:24.262Z,16.57
2019-01-16T09:14:23.069Z,15.57
2019-01-16T09:17:10.271Z,18.17
2019-01-16T09:20:03.370Z,13.27
2019-01-16T09:22:45.192Z,22.63
2019-01-16T09:25:34.919Z,18.77
2019-01-16T09:28:15.014Z,12.53
2019-01-16T09:31:04.680Z,19.43
2019-01-16T09:33:54.187Z,15.67
2019-01-16T09:36:49.983Z,15.60
2019-01-16T09:39:35.496Z,15.67
2019-01-16T09:42:20.780Z,19.40
2019-01-16T09:45:13.260Z,13.83
2019-01-16T09:47:57.574Z,17.23
2019-01-16T09:50:47.792Z,14.30
2019-01-16T09:53:38.319Z,13.50
2019-01-16T09:56:38.107Z,22.73
2019-01-16T09:59:34.007Z,15.30
2019-01-16T10:02:21.841Z,13.63
2019-01-16T10:05:08.075Z,15.90
2019-01-16T10:07:49.621Z,11.00
2019-01-16T10:10:36.790Z,13.57
2019-01-16T10:13:10.650Z,16.93
2019-01-16T10:16:03.194Z,21.93
2019-01-16T10:18:54.408Z,12.83
2019-01-16T10:21:40.962Z,16.17
2019-01-16T10:24:18.297Z,10.93
2019-01-16T10:27:05.213Z,9.93
2019-01-16T10:29:57.208Z,6.93
2019-01-16T10:32:57.202Z,9.40
2019-01-16T10:35:40.603Z,10.57
2019-01-16T10:38:27.098Z,7.50
2019-01-16T10:41:13.928Z,13.33
2019-01-16T10:44:03.381Z,9.30
2019-01-16T10:46:48.497Z,16.30
2019-01-16T10:49:38.438Z,8.63
2019-01-16T10:52:26.056Z,14.00
2019-01-16T10:55:08.140Z,9.70
2019-01-16T10:58:08.096Z,10.70
2019-01-16T11:00:54.178Z,13.70
2019-01-16T11:03:45.176Z,9.67
2019-01-16T11:06:35.613Z,9.63
2019-01-16T11:09:29.360Z,12.03
2019-01-16T11:12:17.025Z,10.20
2019-01-16T11:15:19.465Z,12.40
2019-01-16T11:18:05.350Z,9.73
2019-01-16T11:21:02.265Z,10.33
2019-01-16T11:23:47.886Z,10.30
2019-01-16T11:26:47.042Z,9.53
2019-01-16T11:29:32.459Z,10.53
2019-01-16T11:32:37.602Z,7.50
2019-01-16T11:35:27.974Z,6.73
2019-01-16T11:38:07.813Z,11.60
2019-01-16T11:40:44.991Z,8.67
2019-01-16T11:43:30.175Z,8.17
2019-01-16T11:46:14.563Z,8.70
2019-01-16T11:48:57.885Z,10.43
2019-01-16T11:51:42.744Z,19.50
2019-01-16T11:54:30.241Z,9.93
2019-01-16T11:57:23.227Z,15.57
2019-01-16T12:00:09.625Z,11.20
2019-01-16T12:02:57.319Z,8.60
2019-01-16T12:05:53.262Z,5.93
2019-01-16T12:08:30.532Z,5.90
2019-01-16T12:11:18.184Z,7.30
2019-01-16T12:14:04.894Z,7.87
2019-01-16T12:16:50.269Z,7.37
2019-01-16T12:19:36.929Z,6.70
2019-01-16T12:22:33.073Z,5.57
2019-01-16T12:25:28.629Z,5.83
2019-01-16T12:28:21.794Z,6.13
2019-01-16T12:31:13.070Z,7.10
2019-01-16T12:33:56.115Z,8.90
2019-01-16T12:36:42.024Z,8.00
2019-01-16T12:39:43.818Z,8.17
2019-01-16T12:42:42.868Z,10.03
2019-01-16T12:45:21.887Z,8.53
2019-01-16T12:48:26.870Z,10.00
2019-01-16T12:51:12.834Z,9.83
2019-01-16T12:54:03.126Z,7.70
2019-01-16T12:57:08.059Z,9.83
2019-01-16T12:59:52.987Z,8.73
2019-01-16T13:02:32.943Z,10.67
2019-01-16T13:05:23.579Z,13.10
2019-01-16T13:08:02.610Z,12.03
2019-01-16T13:10:58.580Z,12.60
2019-01-16T13:13:59.166Z,10.90
2019-01-16T13:16:36.547Z,18.37
2019-01-16T13:19:23.359Z,12.90
2019-01-16T13:22:28.347Z,14.87
2019-01-16T13:25:22.386Z,16.53
2019-01-16T13:28:06.840Z,11.97
2019-01-16T13:30:43.625Z,13.63
2019-01-16T13:33:37.330Z,13.35
2019-01-16T13:36:16.071Z,11.20
2019-01-16T13:39:13.051Z,11.50
2019-01-16T13:41:51.856Z,10.60
2019-01-16T13:44:52.417Z,12.73
2019-01-16T13:47:37.832Z,9.93
2019-01-16T13:50:26.043Z,9.87
2019-01-16T13:53:11.574Z,11.10
2019-01-16T13:56:15.431Z,10.63
2019-01-16T13:58:52.771Z,10.43
2019-01-16T14:01:36.735Z,10.83
2019-01-16T14:04:29.160Z,11.90
2019-01-16T14:07:22.613Z,10.47
2019-01-16T14:10:13.716Z,8.67
2019-01-16T14:13:03.434Z,8.77
2019-01-16T14:15:59.423Z,11.73
2019-01-16T14:18:39.626Z,12.27
2019-01-16T14:21:26.316Z,9.67
2019-01-16T14:24:06.395Z,14.10
2019-01-16T14:26:52.861Z,11.33
2019-01-16T14:29:29.479Z,11.27
2019-01-16T14:32:16.482Z,13.80
2019-01-16T14:35:10.775Z,13.00
2019-01-16T14:38:07.375Z,11.87
2019-01-16T14:40:52.317Z,9.73
2019-01-16T14:43:44.938Z,15.40
2019-01-16T14:46:32.190Z,13.53
2019-01-16T14:49:17.588Z,13.27
2019-01-16T14:52:03.573Z,10.63
2019-01-16T14:54:53.973Z,12.77
2019-01-16T14:57:39.750Z,15.43
2019-01-16T15:00:29.332Z,14.00
2019-01-16T15:03:22.281Z,14.50
2019-01-16T15:06:13.912Z,13.10
2019-01-16T15:09:01.843Z,17.40
2019-01-16T15:11:52.242Z,14.17
2019-01-16T15:14:48.340Z,16.07
2019-01-16T15:17:39.523Z,14.63
2019-01-16T15:20:35.978Z,14.50
2019-01-16T15:23:22.359Z,19.45
2019-01-16T15:26:11.930Z,14.60
2019-01-16T15:28:57.967Z,15.73
2019-01-16T15:31:36.447Z,18.30
2019-01-16T15:34:18.655Z,14.47
2019-01-16T15:37:05.145Z,15.10
2019-01-16T15:39:50.690Z,17.93
2019-01-16T15:42:48.037Z,17.43
2019-01-16T15:45:26.671Z,14.63
2019-01-16T15:48:22.620Z,18.43
2019-01-16T15:51:15.138Z,22.93
2019-01-16T15:53:49.370Z,18.80
2019-01-16T15:56:28.110Z,16.87
2019-01-16T15:59:04.783Z,17.40
2019-01-16T16:01:50.383Z,17.83
2019-01-16T16:04:36.162Z,20.60
2019-01-16T16:07:22.655Z,25.20
2019-01-16T16:10:09.567Z,22.40
2019-01-16T16:12:53.610Z,17.70
2019-01-16T16:15:45.437Z,20.95
2019-01-16T16:18:42.051Z,20.32
2019-01-16T16:21:35.618Z,23.20
2019-01-16T16:24:10.842Z,20.87
2019-01-16T16:26:58.633Z,25.20
2019-01-16T16:29:55.956Z,23.17
2019-01-16T16:32:51.746Z,23.60
2019-01-16T16:35:40.961Z,23.40
2019-01-16T16:38:26.851Z,23.77
2019-01-16T16:41:16.051Z,22.70
2019-01-16T16:44:12.639Z,26.70
2019-01-16T16:47:08.863Z,22.70
2019-01-16T16:49:55.551Z,22.00
2019-01-16T16:52:54.626Z,23.87
2019-01-16T16:56:01.102Z,20.85
2019-01-16T16:58:45.907Z,24.53
2019-01-16T17:01:40.730Z,22.52
2019-01-16T17:04:45.575Z,21.30
2019-01-16T17:07:30.802Z,22.70
2019-01-16T17:10:11.728Z,23.60
2019-01-16T17:13:04.364Z,24.40
2019-01-16T17:16:10.179Z,26.23
2019-01-16T17:18:57.076Z,22.17
2019-01-16T17:21:41.135Z,24.20
2019-01-16T17:24:29.603Z,26.93
2019-01-16T17:27:28.786Z,25.65
2019-01-16T17:30:18.794Z,25.32
2019-01-16T17:33:03.119Z,23.10
2019-01-16T17:35:37.966Z,27.82
2019-01-16T17:38:18.815Z,24.30
2019-01-16T17:40:58.249Z,22.45
2019-01-16T17:43:46.497Z,25.70
2019-01-16T17:46:51.303Z,23.47
2019-01-16T17:49:33.263Z,23.87
2019-01-16T17:52:21.002Z,21.87
2019-01-16T17:55:20.686Z,22.93
2019-01-16T17:58:07.710Z,21.27
2019-01-16T18:00:52.814Z,23.45
2019-01-16T18:03:43.833Z,18.57
2019-01-16T18:06:42.565Z,26.35
2019-01-16T18:09:32.060Z,21.05
2019-01-16T18:12:07.473Z,16.67
2019-01-16T18:14:52.487Z,20.17
2019-01-16T18:17:38.373Z,23.62
2019-01-16T18:20:24.515Z,19.30
2019-01-16T18:23:14.948Z,23.00
2019-01-16T18:25:52.239Z,18.10
2019-01-16T18:28:45.287Z,20.10
2019-01-16T18:31:51.068Z,23.30
2019-01-16T18:34:39.055Z,20.88
2019-01-16T18:37:34.938Z,25.82
2019-01-16T18:40:20.612Z,24.20
2019-01-16T18:43:10.380Z,21.73
2019-01-16T18:46:11.165Z,24.40
2019-01-16T18:48:58.199Z,23.50
2019-01-16T18:51:44.895Z,27.50
2019-01-16T18:54:47.042Z,26.15
2019-01-16T18:57:42.545Z,25.48
2019-01-16T19:00:32.795Z,28.75
2019-01-16T19:03:38.367Z,26.05
2019-01-16T19:06:37.165Z,31.07
2019-01-16T19:09:29.155Z,30.95
2019-01-16T19:12:14.692Z,26.00
2019-01-16T19:14:58.784Z,26.75
2019-01-16T19:17:45.429Z,29.20
2019-01-16T19:20:38.162Z,29.82
2019-01-16T19:23:32.659Z,28.17
2019-01-16T19:26:29.322Z,28.98
2019-01-16T19:29:16.943Z,28.10
2019-01-16T19:32:02.533Z,27.17
2019-01-16T19:34:55.526Z,36.30
2019-01-16T19:37:40.206Z,28.07
2019-01-16T19:40:27.979Z,31.00
2019-01-16T19:43:13.526Z,30.75
2019-01-16T19:46:05.278Z,34.13
2019-01-16T19:48:58.118Z,32.67
2019-01-16T19:51:43.846Z,35.78
2019-01-16T19:54:29.703Z,28.67
2019-01-16T19:57:15.294Z,34.35
2019-01-16T20:00:08.268Z,31.70
2019-01-16T20:02:56.263Z,30.75
2019-01-16T20:05:43.603Z,29.07
2019-01-16T20:08:29.450Z,31.45
2019-01-16T20:11:14.633Z,27.40
2019-01-16T20:14:06.136Z,28.95
2019-01-16T20:16:45.282Z,29.40
2019-01-16T20:19:24.085Z,31.30
2019-01-16T20:22:10.652Z,26.65
2019-01-16T20:24:56.358Z,27.80
2019-01-16T20:27:48.589Z,28.27
2019-01-16T20:30:41.409Z,29.12
2019-01-16T20:33:34.737Z,31.87
2019-01-16T20:36:20.025Z,34.10
2019-01-16T20:39:24.276Z,28.12
2019-01-16T20:42:09.497Z,28.67
2019-01-16T20:45:11.720Z,27.25
2019-01-16T20:47:58.186Z,24.90
2019-01-16T20:50:47.902Z,25.85
2019-01-16T20:53:23.389Z,23.90
2019-01-16T20:56:15.845Z,24.57
2019-01-16T20:59:09.140Z,25.20
2019-01-16T21:01:47.657Z,19.52
2019-01-16T21:04:40.691Z,22.85
2019-01-16T21:07:26.612Z,27.07
2019-01-16T21:10:01.085Z,22.80
2019-01-16T21:12:39.708Z,23.90
2019-01-16T21:15:38.103Z,20.75
2019-01-16T21:18:24.790Z,20.45
2019-01-16T21:21:08.427Z,20.43
2019-01-16T21:23:59.794Z,20.45
2019-01-16T21:26:45.056Z,20.72
2019-01-16T21:29:25.118Z,22.90
2019-01-16T21:32:06.994Z,17.82
2019-01-16T21:34:52.430Z,20.97
2019-01-16T21:37:45.272Z,18.55
2019-01-16T21:40:37.971Z,19.25
2019-01-16T21:43:17.805Z,23.90
2019-01-16T21:46:06.047Z,19.57
2019-01-16T21:49:01.805Z,18.80
2019-01-16T21:51:58.211Z,21.42
2019-01-16T21:54:54.471Z,21.00
2019-01-16T21:57:34.937Z,26.20
2019-01-16T22:00:34.335Z,23.15
2019-01-16T22:03:17.955Z,26.07
2019-01-16T22:06:04.844Z,26.10
2019-01-16T22:08:57.681Z,24.45
2019-01-16T22:11:59.557Z,28.57
2019-01-16T22:14:38.736Z,27.13
2019-01-16T22:17:29.787Z,28.65
2019-01-16T22:20:15.329Z,24.85
2019-01-16T22:22:50.772Z,25.57
2019-01-16T22:25:43.932Z,27.45
2019-01-16T22:28:29.101Z,25.00
2019-01-16T22:31:24.602Z,25.35
2019-01-16T22:34:09.890Z,29.65
2019-01-16T22:37:04.211Z,31.55
2019-01-16T22:39:49.820Z,29.02
2019-01-16T22:42:28.511Z,31.27
2019-01-16T22:45:18.261Z,36.83
2019-01-16T22:48:00.974Z,40.38
2019-01-16T22:50:47.230Z,36.28
2019-01-16T22:53:35.869Z,34.83
2019-01-16T22:56:14.634Z,36.23
2019-01-16T22:58:57.266Z,40.75
2019-01-16T23:01:44.216Z,46.53
2019-01-16T23:04:25.318Z,41.08
2019-01-16T23:07:07.869Z,39.67
2019-01-16T23:09:45.415Z,32.58
2019-01-16T23:12:31.551Z,38.80
2019-01-16T23:15:25.835Z,31.93
2019-01-16T23:18:32.825Z,35.55
2019-01-16T23:21:12.006Z,29.42
2019-01-16T23:23:57.246Z,31.73
2019-01-16T23:26:49.885Z,34.27
2019-01-16T23:29:39.966Z,34.58
2019-01-16T23:32:24.723Z,28.20
2019-01-16T23:35:04.091Z,32.90
2019-01-16T23:38:00.547Z,25.12
2019-01-16T23:40:47.648Z,29.75
2019-01-16T23:43:32.849Z,26.82
2019-01-16T23:46:16.726Z,28.27
2019-01-16T23:49:02.086Z,29.77
2019-01-16T23:51:51.952Z,30.68
2019-01-16T23:54:34.914Z,23.73
2019-01-16T23:57:24.161Z,24.65
